sensor_id;sensor_type;location;lat;lon;timestamp;P1;durP1;ratioP1;P2;durP2;ratioP2
65799;SDS011;52544;48.116;11.660;2022-11-15T00:00:43;10.13;;;5.25;;
65799;SDS011;52544;48.116;11.660;2022-11-15T00:03:08;8.70;;;4.72;;
65799;SDS011;52544;48.116;11.660;2022-11-15T00:05:34;7.45;;;4.45;;
65799;SDS011;52544;48.116;11.660;2022-11-15T00:08:01;7.78;;;4.60;;
65799;SDS011;52544;48.116;11.660;2022-11-15T00:10:26;7.00;;;4.43;;
65799;SDS011;52544;48.116;11.660;2022-11-15T00:12:52;8.02;;;5.03;;
65799;SDS011;52544;48.116;11.660;2022-11-15T00:15:17;8.88;;;4.50;;
65799;SDS011;52544;48.116;11.660;2022-11-15T00:17:43;10.57;;;5.00;;
65799;SDS011;52544;48.116;11.660;2022-11-15T00:20:08;8.50;;;5.15;;
65799;SDS011;52544;48.116;11.660;2022-11-15T00:22:34;10.68;;;4.93;;
65799;SDS011;52544;48.116;11.660;2022-11-15T00:24:59;10.15;;;5.53;;
65799;SDS011;52544;48.116;11.660;2022-11-15T00:27:25;8.57;;;4.68;;
65799;SDS011;52544;48.116;11.660;2022-11-15T00:29:50;10.05;;;4.90;;
65799;SDS011;52544;48.116;11.660;2022-11-15T00:32:15;12.43;;;4.97;;
65799;SDS011;52544;48.116;11.660;2022-11-15T00:34:41;7.07;;;4.60;;
65799;SDS011;52544;48.116;11.660;2022-11-15T00:37:06;10.13;;;5.38;;
65799;SDS011;52544;48.116;11.660;2022-11-15T00:39:32;8.50;;;5.05;;
65799;SDS011;52544;48.116;11.660;2022-11-15T00:41:57;7.82;;;4.72;;
65799;SDS011;52544;48.116;11.660;2022-11-15T00:44:22;9.73;;;5.03;;
65799;SDS011;52544;48.116;11.660;2022-11-15T00:46:48;10.23;;;4.80;;
65799;SDS011;52544;48.116;11.660;2022-11-15T00:49:13;9.38;;;5.00;;
65799;SDS011;52544;48.116;11.660;2022-11-15T00:51:39;6.60;;;4.20;;
65799;SDS011;52544;48.116;11.660;2022-11-15T00:54:04;8.18;;;4.72;;
65799;SDS011;52544;48.116;11.660;2022-11-15T00:56:29;8.52;;;4.45;;
65799;SDS011;52544;48.116;11.660;2022-11-15T00:58:55;8.60;;;4.85;;
65799;SDS011;52544;48.116;11.660;2022-11-15T01:01:20;8.10;;;4.63;;
65799;SDS011;52544;48.116;11.660;2022-11-15T01:03:45;10.00;;;4.72;;
65799;SDS011;52544;48.116;11.660;2022-11-15T01:06:11;7.00;;;4.35;;
65799;SDS011;52544;48.116;11.660;2022-11-15T01:08:37;8.35;;;4.50;;
65799;SDS011;52544;48.116;11.660;2022-11-15T01:11:06;8.93;;;4.95;;
65799;SDS011;52544;48.116;11.660;2022-11-15T01:13:34;7.32;;;4.38;;
65799;SDS011;52544;48.116;11.660;2022-11-15T01:16:11;8.70;;;4.68;;
65799;SDS011;52544;48.116;11.660;2022-11-15T01:18:39;9.43;;;4.22;;
65799;SDS011;52544;48.116;11.660;2022-11-15T01:21:06;8.35;;;4.38;;
65799;SDS011;52544;48.116;11.660;2022-11-15T01:23:33;7.35;;;4.68;;
65799;SDS011;52544;48.116;11.660;2022-11-15T01:25:59;8.02;;;4.45;;
65799;SDS011;52544;48.116;11.660;2022-11-15T01:28:25;6.25;;;4.18;;
65799;SDS011;52544;48.116;11.660;2022-11-15T01:30:56;6.93;;;3.92;;
65799;SDS011;52544;48.116;11.660;2022-11-15T01:33:23;6.50;;;4.05;;
65799;SDS011;52544;48.116;11.660;2022-11-15T01:35:48;6.28;;;4.00;;
65799;SDS011;52544;48.116;11.660;2022-11-15T01:38:13;7.07;;;3.90;;
65799;SDS011;52544;48.116;11.660;2022-11-15T01:40:39;9.80;;;4.75;;
65799;SDS011;52544;48.116;11.660;2022-11-15T01:45:52;6.43;;;4.00;;
65799;SDS011;52544;48.116;11.660;2022-11-15T01:48:25;6.22;;;4.15;;
65799;SDS011;52544;48.116;11.660;2022-11-15T01:50:56;7.90;;;4.00;;
65799;SDS011;52544;48.116;11.660;2022-11-15T01:53:23;9.60;;;4.80;;
65799;SDS011;52544;48.116;11.660;2022-11-15T01:55:50;7.03;;;3.70;;
65799;SDS011;52544;48.116;11.660;2022-11-15T01:58:17;5.68;;;3.60;;
65799;SDS011;52544;48.116;11.660;2022-11-15T02:00:42;7.80;;;4.25;;
65799;SDS011;52544;48.116;11.660;2022-11-15T02:03:08;6.75;;;3.92;;
65799;SDS011;52544;48.116;11.660;2022-11-15T02:05:33;7.15;;;3.80;;
65799;SDS011;52544;48.116;11.660;2022-11-15T02:08:01;6.78;;;4.05;;
65799;SDS011;52544;48.116;11.660;2022-11-15T02:10:26;6.43;;;3.85;;
65799;SDS011;52544;48.116;11.660;2022-11-15T02:12:52;4.95;;;3.45;;
65799;SDS011;52544;48.116;11.660;2022-11-15T02:15:20;6.63;;;3.55;;
65799;SDS011;52544;48.116;11.660;2022-11-15T02:29:07;6.07;;;3.20;;
65799;SDS011;52544;48.116;11.660;2022-11-15T02:37:16;5.38;;;3.38;;
65799;SDS011;52544;48.116;11.660;2022-11-15T02:39:51;6.57;;;3.50;;
65799;SDS011;52544;48.116;11.660;2022-11-15T02:42:41;5.57;;;3.30;;
65799;SDS011;52544;48.116;11.660;2022-11-15T02:45:34;6.30;;;3.33;;
65799;SDS011;52544;48.116;11.660;2022-11-15T02:48:04;5.30;;;3.10;;
65799;SDS011;52544;48.116;11.660;2022-11-15T02:50:32;4.93;;;3.33;;
65799;SDS011;52544;48.116;11.660;2022-11-15T02:52:59;4.70;;;3.15;;
65799;SDS011;52544;48.116;11.660;2022-11-15T02:55:26;5.47;;;3.30;;
65799;SDS011;52544;48.116;11.660;2022-11-15T03:06:26;8.10;;;4.30;;
65799;SDS011;52544;48.116;11.660;2022-11-15T03:09:16;8.88;;;4.88;;
65799;SDS011;52544;48.116;11.660;2022-11-15T03:12:03;7.20;;;4.05;;
65799;SDS011;52544;48.116;11.660;2022-11-15T03:14:52;7.10;;;3.97;;
65799;SDS011;52544;48.116;11.660;2022-11-15T03:17:23;5.88;;;3.83;;
65799;SDS011;52544;48.116;11.660;2022-11-15T03:19:58;6.65;;;3.88;;
65799;SDS011;52544;48.116;11.660;2022-11-15T03:22:26;9.15;;;4.28;;
65799;SDS011;52544;48.116;11.660;2022-11-15T03:24:56;7.28;;;4.00;;
65799;SDS011;52544;48.116;11.660;2022-11-15T03:27:27;6.45;;;3.92;;
65799;SDS011;52544;48.116;11.660;2022-11-15T03:29:57;6.00;;;3.67;;
65799;SDS011;52544;48.116;11.660;2022-11-15T03:32:28;7.18;;;3.65;;
65799;SDS011;52544;48.116;11.660;2022-11-15T03:34:57;6.68;;;3.60;;
65799;SDS011;52544;48.116;11.660;2022-11-15T03:37:30;4.68;;;3.25;;
65799;SDS011;52544;48.116;11.660;2022-11-15T03:39:58;6.35;;;3.45;;
65799;SDS011;52544;48.116;11.660;2022-11-15T03:44:51;6.80;;;3.70;;
65799;SDS011;52544;48.116;11.660;2022-11-15T03:47:27;4.57;;;2.88;;
65799;SDS011;52544;48.116;11.660;2022-11-15T03:50:04;4.60;;;3.00;;
65799;SDS011;52544;48.116;11.660;2022-11-15T03:52:33;4.22;;;2.67;;
65799;SDS011;52544;48.116;11.660;2022-11-15T03:55:00;7.50;;;3.30;;
65799;SDS011;52544;48.116;11.660;2022-11-15T03:57:27;4.80;;;2.80;;
65799;SDS011;52544;48.116;11.660;2022-11-15T03:59:53;7.65;;;3.10;;
65799;SDS011;52544;48.116;11.660;2022-11-15T04:02:18;5.20;;;2.88;;
65799;SDS011;52544;48.116;11.660;2022-11-15T04:04:44;5.22;;;3.22;;
65799;SDS011;52544;48.116;11.660;2022-11-15T04:07:09;5.05;;;2.80;;
65799;SDS011;52544;48.116;11.660;2022-11-15T04:09:35;6.10;;;2.85;;
65799;SDS011;52544;48.116;11.660;2022-11-15T04:12:20;8.98;;;2.95;;
65799;SDS011;52544;48.116;11.660;2022-11-15T04:20:16;4.97;;;2.78;;
65799;SDS011;52544;48.116;11.660;2022-11-15T04:23:04;4.47;;;2.63;;
65799;SDS011;52544;48.116;11.660;2022-11-15T04:25:50;5.30;;;2.97;;
65799;SDS011;52544;48.116;11.660;2022-11-15T04:28:17;3.63;;;2.63;;
65799;SDS011;52544;48.116;11.660;2022-11-15T04:30:43;5.50;;;2.33;;
65799;SDS011;52544;48.116;11.660;2022-11-15T04:33:08;6.10;;;3.03;;
65799;SDS011;52544;48.116;11.660;2022-11-15T04:35:34;3.53;;;2.63;;
65799;SDS011;52544;48.116;11.660;2022-11-15T04:37:59;6.18;;;2.60;;
65799;SDS011;52544;48.116;11.660;2022-11-15T04:40:26;4.85;;;2.90;;
65799;SDS011;52544;48.116;11.660;2022-11-15T04:42:51;5.32;;;2.97;;
65799;SDS011;52544;48.116;11.660;2022-11-15T04:45:17;4.63;;;2.88;;
65799;SDS011;52544;48.116;11.660;2022-11-15T04:47:45;7.72;;;2.85;;
65799;SDS011;52544;48.116;11.660;2022-11-15T04:50:12;5.20;;;2.92;;
65799;SDS011;52544;48.116;11.660;2022-11-15T04:52:43;3.97;;;2.78;;
65799;SDS011;52544;48.116;11.660;2022-11-15T04:55:14;3.88;;;2.60;;
65799;SDS011;52544;48.116;11.660;2022-11-15T04:57:40;5.57;;;3.00;;
65799;SDS011;52544;48.116;11.660;2022-11-15T05:00:07;4.13;;;2.40;;
65799;SDS011;52544;48.116;11.660;2022-11-15T05:02:34;4.05;;;2.30;;
65799;SDS011;52544;48.116;11.660;2022-11-15T05:05:19;4.88;;;2.38;;
65799;SDS011;52544;48.116;11.660;2022-11-15T05:07:44;4.95;;;2.60;;
65799;SDS011;52544;48.116;11.660;2022-11-15T05:10:09;5.15;;;2.65;;
65799;SDS011;52544;48.116;11.660;2022-11-15T05:12:35;6.07;;;3.08;;
65799;SDS011;52544;48.116;11.660;2022-11-15T05:15:01;4.70;;;2.72;;
65799;SDS011;52544;48.116;11.660;2022-11-15T05:17:26;4.80;;;2.63;;
65799;SDS011;52544;48.116;11.660;2022-11-15T05:19:52;6.50;;;2.97;;
65799;SDS011;52544;48.116;11.660;2022-11-15T05:22:18;4.90;;;2.65;;
65799;SDS011;52544;48.116;11.660;2022-11-15T05:24:44;4.55;;;2.92;;
65799;SDS011;52544;48.116;11.660;2022-11-15T05:27:09;4.25;;;2.70;;
65799;SDS011;52544;48.116;11.660;2022-11-15T05:29:35;5.00;;;2.60;;
65799;SDS011;52544;48.116;11.660;2022-11-15T05:32:00;4.35;;;2.70;;
65799;SDS011;52544;48.116;11.660;2022-11-15T05:34:25;4.35;;;2.72;;
65799;SDS011;52544;48.116;11.660;2022-11-15T05:36:51;5.38;;;2.50;;
65799;SDS011;52544;48.116;11.660;2022-11-15T05:39:17;8.60;;;2.97;;
65799;SDS011;52544;48.116;11.660;2022-11-15T05:44:13;3.22;;;2.30;;
65799;SDS011;52544;48.116;11.660;2022-11-15T05:46:42;5.32;;;2.92;;
65799;SDS011;52544;48.116;11.660;2022-11-15T05:49:09;4.60;;;2.58;;
65799;SDS011;52544;48.116;11.660;2022-11-15T05:51:38;5.07;;;2.53;;
65799;SDS011;52544;48.116;11.660;2022-11-15T05:54:06;4.32;;;2.45;;
65799;SDS011;52544;48.116;11.660;2022-11-15T05:56:32;4.35;;;2.35;;
65799;SDS011;52544;48.116;11.660;2022-11-15T05:58:58;4.97;;;2.45;;
65799;SDS011;52544;48.116;11.660;2022-11-15T06:01:24;5.07;;;3.40;;
65799;SDS011;52544;48.116;11.660;2022-11-15T06:03:51;8.10;;;4.82;;
65799;SDS011;52544;48.116;11.660;2022-11-15T06:06:16;15.88;;;10.07;;
65799;SDS011;52544;48.116;11.660;2022-11-15T06:08:42;13.48;;;7.07;;
65799;SDS011;52544;48.116;11.660;2022-11-15T06:11:07;11.40;;;6.93;;
65799;SDS011;52544;48.116;11.660;2022-11-15T06:13:33;12.10;;;5.93;;
65799;SDS011;52544;48.116;11.660;2022-11-15T06:15:59;10.30;;;5.95;;
65799;SDS011;52544;48.116;11.660;2022-11-15T06:18:25;7.60;;;4.55;;
65799;SDS011;52544;48.116;11.660;2022-11-15T06:20:51;6.57;;;3.53;;
65799;SDS011;52544;48.116;11.660;2022-11-15T06:23:16;7.07;;;3.88;;
65799;SDS011;52544;48.116;11.660;2022-11-15T06:25:42;5.13;;;3.20;;
65799;SDS011;52544;48.116;11.660;2022-11-15T06:28:07;7.90;;;3.53;;
65799;SDS011;52544;48.116;11.660;2022-11-15T06:30:33;6.40;;;2.80;;
65799;SDS011;52544;48.116;11.660;2022-11-15T06:33:02;6.75;;;3.47;;
65799;SDS011;52544;48.116;11.660;2022-11-15T06:35:30;4.15;;;2.90;;
65799;SDS011;52544;48.116;11.660;2022-11-15T06:38:08;5.35;;;3.25;;
65799;SDS011;52544;48.116;11.660;2022-11-15T06:40:35;5.18;;;3.45;;
65799;SDS011;52544;48.116;11.660;2022-11-15T06:43:02;5.88;;;3.28;;
65799;SDS011;52544;48.116;11.660;2022-11-15T06:45:28;5.78;;;3.35;;
65799;SDS011;52544;48.116;11.660;2022-11-15T06:47:54;5.03;;;3.17;;
65799;SDS011;52544;48.116;11.660;2022-11-15T06:50:20;5.07;;;3.38;;
65799;SDS011;52544;48.116;11.660;2022-11-15T06:52:45;8.45;;;3.90;;
65799;SDS011;52544;48.116;11.660;2022-11-15T06:55:11;7.53;;;3.72;;
65799;SDS011;52544;48.116;11.660;2022-11-15T06:57:36;5.65;;;3.83;;
65799;SDS011;52544;48.116;11.660;2022-11-15T07:00:03;6.97;;;4.00;;
65799;SDS011;52544;48.116;11.660;2022-11-15T07:02:30;11.30;;;3.83;;
65799;SDS011;52544;48.116;11.660;2022-11-15T07:04:56;16.60;;;3.90;;
65799;SDS011;52544;48.116;11.660;2022-11-15T07:07:21;4.45;;;3.05;;
65799;SDS011;52544;48.116;11.660;2022-11-15T07:09:46;9.38;;;3.92;;
65799;SDS011;52544;48.116;11.660;2022-11-15T07:12:12;5.53;;;3.17;;
65799;SDS011;52544;48.116;11.660;2022-11-15T07:14:37;9.65;;;5.13;;
65799;SDS011;52544;48.116;11.660;2022-11-15T07:17:03;9.55;;;4.10;;
65799;SDS011;52544;48.116;11.660;2022-11-15T07:19:30;8.13;;;4.70;;
65799;SDS011;52544;48.116;11.660;2022-11-15T07:21:55;10.25;;;4.10;;
65799;SDS011;52544;48.116;11.660;2022-11-15T07:24:21;7.47;;;4.10;;
65799;SDS011;52544;48.116;11.660;2022-11-15T07:26:46;9.65;;;4.60;;
65799;SDS011;52544;48.116;11.660;2022-11-15T07:29:11;12.70;;;5.55;;
65799;SDS011;52544;48.116;11.660;2022-11-15T07:31:37;10.77;;;4.88;;
65799;SDS011;52544;48.116;11.660;2022-11-15T07:34:03;16.70;;;6.05;;
65799;SDS011;52544;48.116;11.660;2022-11-15T07:36:28;17.85;;;6.00;;
65799;SDS011;52544;48.116;11.660;2022-11-15T07:38:53;10.98;;;4.72;;
65799;SDS011;52544;48.116;11.660;2022-11-15T07:41:19;11.90;;;5.07;;
65799;SDS011;52544;48.116;11.660;2022-11-15T07:43:44;9.57;;;4.55;;
65799;SDS011;52544;48.116;11.660;2022-11-15T07:46:10;10.45;;;5.03;;
65799;SDS011;52544;48.116;11.660;2022-11-15T07:48:35;18.75;;;5.15;;
65799;SDS011;52544;48.116;11.660;2022-11-15T07:51:02;11.88;;;5.45;;
65799;SDS011;52544;48.116;11.660;2022-11-15T07:53:27;9.13;;;4.43;;
65799;SDS011;52544;48.116;11.660;2022-11-15T07:55:53;10.75;;;4.57;;
65799;SDS011;52544;48.116;11.660;2022-11-15T07:58:18;7.85;;;4.00;;
65799;SDS011;52544;48.116;11.660;2022-11-15T08:00:44;6.80;;;3.78;;
65799;SDS011;52544;48.116;11.660;2022-11-15T08:03:11;8.57;;;4.40;;
65799;SDS011;52544;48.116;11.660;2022-11-15T08:05:38;10.07;;;4.55;;
65799;SDS011;52544;48.116;11.660;2022-11-15T08:08:05;5.57;;;3.78;;
65799;SDS011;52544;48.116;11.660;2022-11-15T08:10:31;8.07;;;3.88;;
65799;SDS011;52544;48.116;11.660;2022-11-15T08:12:58;5.00;;;3.35;;
65799;SDS011;52544;48.116;11.660;2022-11-15T08:15:24;6.45;;;3.90;;
65799;SDS011;52544;48.116;11.660;2022-11-15T08:17:53;6.57;;;4.03;;
65799;SDS011;52544;48.116;11.660;2022-11-15T08:20:23;7.40;;;3.95;;
65799;SDS011;52544;48.116;11.660;2022-11-15T08:22:49;5.35;;;3.40;;
65799;SDS011;52544;48.116;11.660;2022-11-15T08:25:15;5.90;;;3.17;;
65799;SDS011;52544;48.116;11.660;2022-11-15T08:27:40;8.15;;;3.65;;
65799;SDS011;52544;48.116;11.660;2022-11-15T08:30:06;7.30;;;3.67;;
65799;SDS011;52544;48.116;11.660;2022-11-15T08:32:32;5.15;;;3.50;;
65799;SDS011;52544;48.116;11.660;2022-11-15T08:34:57;4.68;;;3.30;;
65799;SDS011;52544;48.116;11.660;2022-11-15T08:37:22;6.93;;;3.80;;
65799;SDS011;52544;48.116;11.660;2022-11-15T08:39:48;4.93;;;2.90;;
65799;SDS011;52544;48.116;11.660;2022-11-15T08:42:13;5.88;;;3.45;;
65799;SDS011;52544;48.116;11.660;2022-11-15T08:44:40;6.70;;;3.30;;
65799;SDS011;52544;48.116;11.660;2022-11-15T08:47:05;4.22;;;2.88;;
65799;SDS011;52544;48.116;11.660;2022-11-15T08:49:31;6.18;;;3.67;;
65799;SDS011;52544;48.116;11.660;2022-11-15T08:51:56;4.95;;;3.17;;
65799;SDS011;52544;48.116;11.660;2022-11-15T08:54:22;4.75;;;3.30;;
65799;SDS011;52544;48.116;11.660;2022-11-15T08:56:47;5.63;;;3.17;;
65799;SDS011;52544;48.116;11.660;2022-11-15T08:59:12;7.40;;;3.20;;
65799;SDS011;52544;48.116;11.660;2022-11-15T09:01:38;4.53;;;2.97;;
65799;SDS011;52544;48.116;11.660;2022-11-15T09:04:03;7.30;;;3.20;;
65799;SDS011;52544;48.116;11.660;2022-11-15T09:06:29;4.88;;;2.92;;
65799;SDS011;52544;48.116;11.660;2022-11-15T09:08:55;3.10;;;2.40;;
65799;SDS011;52544;48.116;11.660;2022-11-15T09:11:21;3.38;;;2.40;;
65799;SDS011;52544;48.116;11.660;2022-11-15T09:13:48;6.10;;;3.63;;
65799;SDS011;52544;48.116;11.660;2022-11-15T09:16:14;4.38;;;2.80;;
65799;SDS011;52544;48.116;11.660;2022-11-15T09:18:40;8.85;;;2.65;;
65799;SDS011;52544;48.116;11.660;2022-11-15T09:21:07;4.85;;;2.60;;
65799;SDS011;52544;48.116;11.660;2022-11-15T09:23:32;4.22;;;2.40;;
65799;SDS011;52544;48.116;11.660;2022-11-15T09:26:01;4.22;;;2.40;;
65799;SDS011;52544;48.116;11.660;2022-11-15T09:28:28;4.15;;;2.40;;
65799;SDS011;52544;48.116;11.660;2022-11-15T09:31:00;5.25;;;2.45;;
65799;SDS011;52544;48.116;11.660;2022-11-15T09:33:27;4.60;;;2.25;;
65799;SDS011;52544;48.116;11.660;2022-11-15T09:35:53;7.45;;;2.33;;
65799;SDS011;52544;48.116;11.660;2022-11-15T09:38:19;2.47;;;1.92;;
65799;SDS011;52544;48.116;11.660;2022-11-15T09:40:46;3.50;;;2.28;;
65799;SDS011;52544;48.116;11.660;2022-11-15T09:46:08;4.28;;;2.35;;
65799;SDS011;52544;48.116;11.660;2022-11-15T09:48:57;3.08;;;2.10;;
65799;SDS011;52544;48.116;11.660;2022-11-15T09:54:04;3.78;;;1.98;;
65799;SDS011;52544;48.116;11.660;2022-11-15T09:56:38;6.30;;;2.20;;
65799;SDS011;52544;48.116;11.660;2022-11-15T10:02:13;3.08;;;1.92;;
65799;SDS011;52544;48.116;11.660;2022-11-15T10:04:44;3.53;;;1.83;;
65799;SDS011;52544;48.116;11.660;2022-11-15T10:09:53;3.25;;;2.10;;
65799;SDS011;52544;48.116;11.660;2022-11-15T10:12:24;2.30;;;1.90;;
65799;SDS011;52544;48.116;11.660;2022-11-15T10:14:55;2.83;;;2.00;;
65799;SDS011;52544;48.116;11.660;2022-11-15T10:20:26;3.22;;;2.25;;
65799;SDS011;52544;48.116;11.660;2022-11-15T10:22:55;3.28;;;1.90;;
65799;SDS011;52544;48.116;11.660;2022-11-15T10:25:27;4.40;;;2.20;;
65799;SDS011;52544;48.116;11.660;2022-11-15T10:27:58;2.45;;;2.00;;
65799;SDS011;52544;48.116;11.660;2022-11-15T10:30:47;2.97;;;2.10;;
65799;SDS011;52544;48.116;11.660;2022-11-15T10:33:32;1.92;;;1.73;;
65799;SDS011;52544;48.116;11.660;2022-11-15T10:38:55;3.42;;;2.08;;
65799;SDS011;52544;48.116;11.660;2022-11-15T10:41:42;5.15;;;2.35;;
65799;SDS011;52544;48.116;11.660;2022-11-15T10:46:33;2.88;;;2.00;;
65799;SDS011;52544;48.116;11.660;2022-11-15T10:49:15;3.63;;;2.40;;
65799;SDS011;52544;48.116;11.660;2022-11-15T10:51:47;5.00;;;2.30;;
65799;SDS011;52544;48.116;11.660;2022-11-15T10:54:21;2.35;;;1.90;;
65799;SDS011;52544;48.116;11.660;2022-11-15T10:57:18;6.57;;;1.88;;
65799;SDS011;52544;48.116;11.660;2022-11-15T10:59:48;6.07;;;2.10;;
65799;SDS011;52544;48.116;11.660;2022-11-15T11:02:29;3.25;;;2.28;;
65799;SDS011;52544;48.116;11.660;2022-11-15T11:05:00;3.08;;;1.90;;
65799;SDS011;52544;48.116;11.660;2022-11-15T11:07:29;3.90;;;2.20;;
65799;SDS011;52544;48.116;11.660;2022-11-15T11:10:18;5.25;;;2.20;;
65799;SDS011;52544;48.116;11.660;2022-11-15T11:12:43;2.78;;;2.05;;
65799;SDS011;52544;48.116;11.660;2022-11-15T11:15:10;4.00;;;2.00;;
65799;SDS011;52544;48.116;11.660;2022-11-15T11:20:35;2.88;;;2.10;;
65799;SDS011;52544;48.116;11.660;2022-11-15T11:37:03;5.45;;;1.83;;
65799;SDS011;52544;48.116;11.660;2022-11-15T11:48:14;2.33;;;1.92;;
65799;SDS011;52544;48.116;11.660;2022-11-15T11:50:53;2.70;;;1.58;;
65799;SDS011;52544;48.116;11.660;2022-11-15T11:53:39;2.53;;;1.58;;
65799;SDS011;52544;48.116;11.660;2022-11-15T11:56:21;2.30;;;1.70;;
65799;SDS011;52544;48.116;11.660;2022-11-15T11:58:52;3.65;;;1.70;;
65799;SDS011;52544;48.116;11.660;2022-11-15T12:01:22;5.00;;;1.55;;
65799;SDS011;52544;48.116;11.660;2022-11-15T12:03:59;2.03;;;1.60;;
65799;SDS011;52544;48.116;11.660;2022-11-15T12:06:35;2.33;;;1.65;;
65799;SDS011;52544;48.116;11.660;2022-11-15T12:09:15;3.40;;;1.70;;
65799;SDS011;52544;48.116;11.660;2022-11-15T12:14:36;2.90;;;1.90;;
65799;SDS011;52544;48.116;11.660;2022-11-15T12:17:10;5.80;;;2.00;;
65799;SDS011;52544;48.116;11.660;2022-11-15T12:19:37;3.15;;;1.80;;
65799;SDS011;52544;48.116;11.660;2022-11-15T12:22:06;2.22;;;1.70;;
65799;SDS011;52544;48.116;11.660;2022-11-15T12:24:37;2.15;;;1.88;;
65799;SDS011;52544;48.116;11.660;2022-11-15T12:29:43;4.15;;;1.73;;
65799;SDS011;52544;48.116;11.660;2022-11-15T12:32:18;2.60;;;2.25;;
65799;SDS011;52544;48.116;11.660;2022-11-15T12:34:59;4.82;;;2.22;;
65799;SDS011;52544;48.116;11.660;2022-11-15T12:42:35;2.33;;;1.77;;
65799;SDS011;52544;48.116;11.660;2022-11-15T12:45:25;2.80;;;2.00;;
65799;SDS011;52544;48.116;11.660;2022-11-15T12:56:07;3.47;;;2.30;;
65799;SDS011;52544;48.116;11.660;2022-11-15T12:58:50;2.88;;;2.17;;
65799;SDS011;52544;48.116;11.660;2022-11-15T13:06:57;3.58;;;1.90;;
65799;SDS011;52544;48.116;11.660;2022-11-15T13:19:43;2.63;;;1.85;;
65799;SDS011;52544;48.116;11.660;2022-11-15T13:22:12;3.15;;;2.08;;
65799;SDS011;52544;48.116;11.660;2022-11-15T13:24:56;2.10;;;1.75;;
65799;SDS011;52544;48.116;11.660;2022-11-15T13:27:22;2.47;;;1.90;;
65799;SDS011;52544;48.116;11.660;2022-11-15T13:29:48;2.97;;;1.92;;
65799;SDS011;52544;48.116;11.660;2022-11-15T13:32:14;2.70;;;1.83;;
65799;SDS011;52544;48.116;11.660;2022-11-15T13:34:44;3.60;;;2.20;;
65799;SDS011;52544;48.116;11.660;2022-11-15T13:37:26;4.18;;;2.30;;
65799;SDS011;52544;48.116;11.660;2022-11-15T13:39:54;2.58;;;1.70;;
65799;SDS011;52544;48.116;11.660;2022-11-15T13:42:35;4.03;;;1.98;;
65799;SDS011;52544;48.116;11.660;2022-11-15T13:45:02;3.50;;;2.28;;
65799;SDS011;52544;48.116;11.660;2022-11-15T13:47:29;3.00;;;2.00;;
65799;SDS011;52544;48.116;11.660;2022-11-15T13:49:57;2.72;;;1.92;;
65799;SDS011;52544;48.116;11.660;2022-11-15T13:52:22;2.60;;;2.00;;
65799;SDS011;52544;48.116;11.660;2022-11-15T13:55:01;4.32;;;1.77;;
65799;SDS011;52544;48.116;11.660;2022-11-15T13:57:51;5.07;;;2.40;;
65799;SDS011;52544;48.116;11.660;2022-11-15T14:02:55;3.17;;;2.28;;
65799;SDS011;52544;48.116;11.660;2022-11-15T14:05:22;3.35;;;2.45;;
65799;SDS011;52544;48.116;11.660;2022-11-15T14:10:47;4.82;;;2.55;;
65799;SDS011;52544;48.116;11.660;2022-11-15T14:13:29;3.80;;;2.25;;
65799;SDS011;52544;48.116;11.660;2022-11-15T14:16:12;3.17;;;2.30;;
65799;SDS011;52544;48.116;11.660;2022-11-15T14:18:40;3.53;;;2.47;;
65799;SDS011;52544;48.116;11.660;2022-11-15T14:21:10;3.55;;;2.58;;
65799;SDS011;52544;48.116;11.660;2022-11-15T14:23:35;2.50;;;2.00;;
65799;SDS011;52544;48.116;11.660;2022-11-15T14:26:01;4.15;;;2.20;;
65799;SDS011;52544;48.116;11.660;2022-11-15T14:30:53;5.57;;;2.20;;
65799;SDS011;52544;48.116;11.660;2022-11-15T14:35:53;3.40;;;2.50;;
65799;SDS011;52544;48.116;11.660;2022-11-15T14:38:20;4.38;;;2.40;;
65799;SDS011;52544;48.116;11.660;2022-11-15T14:40:45;5.60;;;3.42;;
65799;SDS011;52544;48.116;11.660;2022-11-15T14:43:11;6.38;;;4.60;;
65799;SDS011;52544;48.116;11.660;2022-11-15T14:45:37;7.00;;;4.15;;
65799;SDS011;52544;48.116;11.660;2022-11-15T14:48:03;5.38;;;3.35;;
65799;SDS011;52544;48.116;11.660;2022-11-15T14:50:29;5.82;;;3.05;;
65799;SDS011;52544;48.116;11.660;2022-11-15T14:52:54;4.13;;;2.42;;
65799;SDS011;52544;48.116;11.660;2022-11-15T14:55:21;4.05;;;2.38;;
65799;SDS011;52544;48.116;11.660;2022-11-15T14:57:47;4.45;;;2.55;;
65799;SDS011;52544;48.116;11.660;2022-11-15T15:00:13;5.07;;;3.28;;
65799;SDS011;52544;48.116;11.660;2022-11-15T15:02:40;6.68;;;3.05;;
65799;SDS011;52544;48.116;11.660;2022-11-15T15:05:14;8.18;;;3.72;;
65799;SDS011;52544;48.116;11.660;2022-11-15T15:07:44;10.20;;;4.53;;
65799;SDS011;52544;48.116;11.660;2022-11-15T15:10:10;6.00;;;3.63;;
65799;SDS011;52544;48.116;11.660;2022-11-15T15:12:36;7.82;;;4.80;;
65799;SDS011;52544;48.116;11.660;2022-11-15T15:15:01;20.83;;;10.07;;
65799;SDS011;52544;48.116;11.660;2022-11-15T15:17:27;10.73;;;5.80;;
65799;SDS011;52544;48.116;11.660;2022-11-15T15:19:52;9.65;;;5.13;;
65799;SDS011;52544;48.116;11.660;2022-11-15T15:22:18;11.25;;;5.25;;
65799;SDS011;52544;48.116;11.660;2022-11-15T15:24:47;7.85;;;4.75;;
65799;SDS011;52544;48.116;11.660;2022-11-15T15:27:13;8.05;;;4.72;;
65799;SDS011;52544;48.116;11.660;2022-11-15T15:29:38;8.45;;;4.82;;
65799;SDS011;52544;48.116;11.660;2022-11-15T15:32:04;10.00;;;4.93;;
65799;SDS011;52544;48.116;11.660;2022-11-15T15:34:30;8.90;;;4.68;;
65799;SDS011;52544;48.116;11.660;2022-11-15T15:37:06;12.93;;;5.65;;
65799;SDS011;52544;48.116;11.660;2022-11-15T15:39:41;9.05;;;4.80;;
65799;SDS011;52544;48.116;11.660;2022-11-15T15:42:06;11.73;;;6.25;;
65799;SDS011;52544;48.116;11.660;2022-11-15T15:44:32;11.90;;;6.22;;
65799;SDS011;52544;48.116;11.660;2022-11-15T15:46:57;10.45;;;5.82;;
65799;SDS011;52544;48.116;11.660;2022-11-15T15:49:22;11.23;;;5.20;;
65799;SDS011;52544;48.116;11.660;2022-11-15T15:51:48;11.55;;;5.22;;
65799;SDS011;52544;48.116;11.660;2022-11-15T15:54:14;14.98;;;5.50;;
65799;SDS011;52544;48.116;11.660;2022-11-15T15:56:39;12.05;;;5.32;;
65799;SDS011;52544;48.116;11.660;2022-11-15T15:59:04;20.27;;;7.90;;
65799;SDS011;52544;48.116;11.660;2022-11-15T16:01:30;16.15;;;6.47;;
65799;SDS011;52544;48.116;11.660;2022-11-15T16:03:55;16.23;;;7.28;;
65799;SDS011;52544;48.116;11.660;2022-11-15T16:09:08;16.95;;;6.97;;
65799;SDS011;52544;48.116;11.660;2022-11-15T16:11:39;29.75;;;7.15;;
65799;SDS011;52544;48.116;11.660;2022-11-15T16:14:06;19.40;;;8.55;;
65799;SDS011;52544;48.116;11.660;2022-11-15T16:16:32;17.60;;;9.05;;
65799;SDS011;52544;48.116;11.660;2022-11-15T16:18:59;21.08;;;8.93;;
65799;SDS011;52544;48.116;11.660;2022-11-15T16:21:26;20.45;;;9.77;;
65799;SDS011;52544;48.116;11.660;2022-11-15T16:23:52;27.05;;;11.98;;
65799;SDS011;52544;48.116;11.660;2022-11-15T16:26:20;20.75;;;10.32;;
65799;SDS011;52544;48.116;11.660;2022-11-15T16:28:47;21.77;;;11.15;;
65799;SDS011;52544;48.116;11.660;2022-11-15T16:31:13;22.13;;;10.02;;
65799;SDS011;52544;48.116;11.660;2022-11-15T16:33:39;17.88;;;9.18;;
65799;SDS011;52544;48.116;11.660;2022-11-15T16:36:05;19.15;;;9.60;;
65799;SDS011;52544;48.116;11.660;2022-11-15T16:38:37;19.17;;;9.38;;
65799;SDS011;52544;48.116;11.660;2022-11-15T16:41:04;23.13;;;9.57;;
65799;SDS011;52544;48.116;11.660;2022-11-15T16:43:29;19.75;;;9.52;;
65799;SDS011;52544;48.116;11.660;2022-11-15T16:45:54;18.05;;;8.43;;
65799;SDS011;52544;48.116;11.660;2022-11-15T16:48:24;17.75;;;8.25;;
65799;SDS011;52544;48.116;11.660;2022-11-15T16:51:00;17.05;;;8.90;;